createdAt,value
2023-09-05T00:00:21.513Z,19.40
2023-09-05T00:02:49.842Z,19.40
2023-09-05T00:05:19.246Z,19.40
2023-09-05T00:07:46.212Z,19.40
2023-09-05T00:10:13.949Z,19.40
2023-09-05T00:12:45.065Z,19.50
2023-09-05T00:15:13.641Z,19.40
2023-09-05T00:17:41.593Z,19.40
2023-09-05T00:20:09.130Z,19.30
2023-09-05T00:22:36.563Z,19.30
2023-09-05T00:25:04.320Z,19.30
2023-09-05T00:27:31.208Z,19.20
2023-09-05T00:29:58.740Z,19.20
2023-09-05T00:32:25.484Z,19.20
2023-09-05T00:34:52.271Z,19.20
2023-09-05T00:39:56.890Z,19.20
2023-09-05T00:42:23.516Z,19.20
2023-09-05T00:44:51.118Z,19.30
2023-09-05T00:47:18.017Z,19.30
2023-09-05T00:49:48.890Z,19.20
2023-09-05T00:52:19.243Z,19.10
2023-09-05T00:54:46.406Z,19.10
2023-09-05T00:57:16.608Z,19.10
2023-09-05T00:59:44.729Z,19.10
2023-09-05T01:02:11.607Z,19.00
2023-09-05T01:04:38.552Z,19.00
2023-09-05T01:07:20.139Z,19.00
2023-09-05T01:10:12.995Z,18.90
2023-09-05T01:12:39.690Z,18.90
2023-09-05T01:15:08.916Z,18.90
2023-09-05T01:17:36.020Z,18.90
2023-09-05T01:20:05.659Z,18.80
2023-09-05T01:22:51.275Z,18.80
2023-09-05T01:25:18.426Z,18.80
2023-09-05T01:27:49.583Z,18.80
2023-09-05T01:30:17.162Z,18.80
2023-09-05T01:32:48.192Z,18.80
2023-09-05T01:35:14.843Z,18.80
2023-09-05T01:37:41.614Z,18.70
2023-09-05T01:40:08.713Z,18.70
2023-09-05T01:42:35.370Z,18.70
2023-09-05T01:45:02.060Z,18.70
2023-09-05T01:47:28.711Z,18.60
2023-09-05T01:49:55.648Z,18.60
2023-09-05T01:52:22.361Z,18.50
2023-09-05T01:54:49.118Z,18.50
2023-09-05T01:57:15.867Z,18.50
2023-09-05T01:59:42.596Z,18.50
2023-09-05T02:02:09.397Z,18.50
2023-09-05T02:04:36.370Z,18.50
2023-09-05T02:07:03.103Z,18.40
2023-09-05T02:09:29.781Z,18.40
2023-09-05T02:11:56.483Z,18.40
2023-09-05T02:14:23.175Z,18.40
2023-09-05T02:16:49.898Z,18.40
2023-09-05T02:19:17.222Z,18.40
2023-09-05T02:21:44.528Z,18.30
2023-09-05T02:24:11.273Z,18.30
2023-09-05T02:26:38.389Z,18.20
2023-09-05T02:29:05.417Z,18.20
2023-09-05T02:31:32.378Z,18.10
2023-09-05T02:33:59.173Z,18.10
2023-09-05T02:36:25.842Z,18.00
2023-09-05T02:38:52.502Z,18.00
2023-09-05T02:41:19.235Z,18.00
2023-09-05T02:43:49.796Z,18.00
2023-09-05T02:46:16.702Z,18.00
2023-09-05T02:48:43.818Z,18.00
2023-09-05T02:51:12.099Z,18.00
2023-09-05T02:53:39.555Z,18.00
2023-09-05T02:56:06.441Z,18.00
2023-09-05T02:58:33.638Z,18.00
2023-09-05T03:01:05.446Z,17.90
2023-09-05T03:03:32.501Z,18.00
2023-09-05T03:06:09.078Z,17.90
2023-09-05T03:08:37.359Z,17.90
2023-09-05T03:11:03.985Z,17.90
2023-09-05T03:13:30.645Z,17.90
2023-09-05T03:15:57.323Z,17.90
2023-09-05T03:18:26.283Z,17.90
2023-09-05T03:20:53.009Z,17.80
2023-09-05T03:23:20.346Z,17.80
2023-09-05T03:25:47.166Z,17.80
2023-09-05T03:28:14.510Z,17.70
2023-09-05T03:30:42.148Z,17.70
2023-09-05T03:33:09.169Z,17.70
2023-09-05T03:35:36.401Z,17.70
2023-09-05T03:38:03.909Z,17.60
2023-09-05T03:40:31.541Z,17.60
2023-09-05T03:42:58.179Z,17.60
2023-09-05T03:45:25.090Z,17.60
2023-09-05T03:48:00.782Z,17.60
2023-09-05T03:50:28.975Z,17.60
2023-09-05T03:52:55.671Z,17.50
2023-09-05T03:55:22.473Z,17.50
2023-09-05T03:57:49.151Z,17.40
2023-09-05T04:00:16.200Z,17.30
2023-09-05T04:02:42.975Z,17.20
2023-09-05T04:05:09.951Z,17.20
2023-09-05T04:07:36.883Z,17.20
2023-09-05T04:10:04.055Z,17.20
2023-09-05T04:12:30.886Z,17.20
2023-09-05T04:14:57.531Z,17.10
2023-09-05T04:17:24.538Z,17.20
2023-09-05T04:19:55.648Z,17.30
2023-09-05T04:22:26.396Z,17.20
2023-09-05T04:24:54.728Z,17.20
2023-09-05T04:27:22.915Z,17.20
2023-09-05T04:29:52.704Z,17.20
2023-09-05T04:32:28.943Z,17.20
2023-09-05T04:34:57.302Z,17.20
2023-09-05T04:37:24.076Z,17.20
2023-09-05T04:39:51.088Z,17.10
2023-09-05T04:42:17.924Z,17.10
2023-09-05T04:44:44.769Z,17.10
2023-09-05T04:47:25.472Z,17.00
2023-09-05T04:49:54.033Z,17.00
2023-09-05T04:52:22.365Z,16.90
2023-09-05T04:54:49.166Z,16.90
2023-09-05T04:57:17.376Z,16.90
2023-09-05T04:59:46.103Z,16.90
2023-09-05T05:02:12.816Z,16.90
2023-09-05T05:04:39.746Z,16.90
2023-09-05T05:07:06.469Z,16.90
2023-09-05T05:09:33.240Z,17.00
2023-09-05T05:12:00.463Z,16.90
2023-09-05T05:14:27.375Z,17.00
2023-09-05T05:16:55.215Z,17.00
2023-09-05T05:19:22.783Z,17.10
2023-09-05T05:21:50.520Z,17.20
2023-09-05T05:24:17.228Z,17.20
2023-09-05T05:26:44.822Z,17.20
2023-09-05T05:29:11.866Z,17.30
2023-09-05T05:31:40.547Z,17.30
2023-09-05T05:34:07.685Z,17.20
2023-09-05T05:36:39.190Z,17.20
2023-09-05T05:39:06.076Z,17.30
2023-09-05T05:41:34.864Z,17.30
2023-09-05T05:44:01.640Z,17.40
2023-09-05T05:46:28.495Z,17.40
2023-09-05T05:49:00.707Z,17.40
2023-09-05T05:51:28.587Z,17.40
2023-09-05T05:53:55.497Z,17.50
2023-09-05T05:56:22.236Z,17.50
2023-09-05T05:58:49.555Z,17.60
2023-09-05T06:01:19.425Z,17.60
2023-09-05T06:03:47.083Z,17.60
2023-09-05T06:06:14.745Z,17.60
2023-09-05T06:08:42.084Z,17.60
2023-09-05T06:11:09.056Z,17.60
2023-09-05T06:13:35.812Z,17.70
2023-09-05T06:16:02.585Z,17.70
2023-09-05T06:18:29.659Z,17.60
2023-09-05T06:20:56.589Z,17.70
2023-09-05T06:23:23.413Z,17.70
2023-09-05T06:25:50.174Z,17.70
2023-09-05T06:28:17.896Z,17.70
2023-09-05T06:30:44.732Z,17.80
2023-09-05T06:33:11.636Z,17.80
2023-09-05T06:35:38.436Z,17.90
2023-09-05T06:38:06.853Z,17.90
2023-09-05T06:40:33.629Z,18.00
2023-09-05T06:43:00.370Z,18.00
2023-09-05T06:45:27.759Z,18.10
2023-09-05T06:47:54.925Z,18.10
2023-09-05T06:50:21.878Z,18.00
2023-09-05T06:52:49.650Z,18.00
2023-09-05T06:55:16.545Z,18.20
2023-09-05T06:57:43.790Z,18.20
2023-09-05T07:00:11.852Z,18.20
2023-09-05T07:02:38.700Z,18.40
2023-09-05T07:05:06.062Z,18.40
2023-09-05T07:07:32.808Z,18.50
2023-09-05T07:10:00.479Z,18.50
2023-09-05T07:12:27.244Z,18.60
2023-09-05T07:14:54.119Z,18.60
2023-09-05T07:17:20.793Z,18.60
2023-09-05T07:19:47.969Z,18.70
2023-09-05T07:22:14.786Z,18.70
2023-09-05T07:24:41.498Z,18.80
2023-09-05T07:27:08.214Z,18.90
2023-09-05T07:29:34.938Z,18.90
2023-09-05T07:32:02.571Z,19.00
2023-09-05T07:34:29.380Z,19.00
2023-09-05T07:36:57.830Z,19.10
2023-09-05T07:39:25.933Z,19.10
2023-09-05T07:41:53.021Z,19.30
2023-09-05T07:44:20.755Z,19.30
2023-09-05T07:46:47.882Z,19.40
2023-09-05T07:49:16.988Z,19.40
2023-09-05T07:51:44.002Z,19.70
2023-09-05T07:54:17.063Z,19.70
2023-09-05T07:56:43.887Z,19.70
2023-09-05T07:59:10.722Z,19.70
2023-09-05T08:01:38.417Z,19.80
2023-09-05T08:04:06.695Z,19.90
2023-09-05T08:06:33.595Z,19.90
2023-09-05T08:09:00.439Z,20.10
2023-09-05T08:11:27.124Z,20.10
2023-09-05T08:13:54.564Z,20.20
2023-09-05T08:16:23.423Z,20.40
2023-09-05T08:18:50.126Z,20.30
2023-09-05T08:21:18.127Z,20.40
2023-09-05T08:23:45.636Z,20.50
2023-09-05T08:26:12.989Z,20.70
2023-09-05T08:28:44.766Z,20.90
2023-09-05T08:31:18.174Z,21.00
2023-09-05T08:33:46.150Z,21.10
2023-09-05T08:36:12.815Z,21.30
2023-09-05T08:38:40.489Z,21.40
2023-09-05T08:41:08.090Z,21.50
2023-09-05T08:43:36.139Z,21.60
2023-09-05T08:46:03.906Z,21.80
2023-09-05T08:48:47.438Z,21.90
2023-09-05T08:51:16.069Z,22.20
2023-09-05T08:53:50.568Z,22.40
2023-09-05T08:56:17.423Z,22.40
2023-09-05T08:58:44.726Z,22.60
2023-09-05T09:01:12.378Z,22.60
2023-09-05T09:03:39.083Z,22.70
2023-09-05T09:06:05.818Z,22.80
2023-09-05T09:08:53.356Z,23.00
2023-09-05T09:11:21.716Z,23.20
2023-09-05T09:14:00.237Z,23.30
2023-09-05T09:16:27.144Z,23.50
2023-09-05T09:19:04.860Z,23.60
2023-09-05T09:21:33.883Z,23.80
2023-09-05T09:24:01.503Z,24.10
2023-09-05T09:26:28.606Z,24.50
2023-09-05T09:28:56.042Z,24.70
2023-09-05T09:31:27.622Z,24.70
2023-09-05T09:33:58.400Z,24.80
2023-09-05T09:36:36.779Z,25.10
2023-09-05T09:39:13.418Z,25.50
2023-09-05T09:41:48.301Z,25.70
2023-09-05T09:44:29.205Z,25.60
2023-09-05T09:46:58.586Z,26.00
2023-09-05T09:49:26.802Z,26.10
2023-09-05T09:51:55.296Z,26.20
2023-09-05T09:54:30.338Z,26.50
2023-09-05T09:57:02.024Z,26.50
2023-09-05T09:59:36.626Z,26.40
2023-09-05T10:02:15.163Z,26.70
2023-09-05T10:04:44.218Z,26.70
2023-09-05T10:07:18.045Z,26.80
2023-09-05T10:09:46.988Z,27.10
2023-09-05T10:12:16.813Z,27.40
2023-09-05T10:14:45.966Z,27.40
2023-09-05T10:17:14.434Z,27.80
2023-09-05T10:19:43.499Z,27.80
2023-09-05T10:22:10.918Z,28.00
2023-09-05T10:24:38.739Z,28.00
2023-09-05T10:27:05.752Z,27.90
2023-09-05T10:29:43.093Z,28.40
2023-09-05T10:32:10.845Z,28.60
2023-09-05T10:34:49.747Z,27.80
2023-09-05T10:37:18.625Z,28.30
2023-09-05T10:39:46.552Z,28.10
2023-09-05T10:42:14.470Z,28.10
2023-09-05T10:44:42.634Z,28.70
2023-09-05T10:47:24.798Z,28.20
2023-09-05T10:49:58.545Z,28.70
2023-09-05T10:52:28.257Z,28.90
2023-09-05T10:54:55.206Z,29.10
2023-09-05T10:57:38.453Z,29.40
2023-09-05T11:00:29.925Z,29.30
2023-09-05T11:03:11.477Z,29.30
2023-09-05T11:05:41.927Z,29.70
2023-09-05T11:08:24.639Z,29.80
2023-09-05T11:10:54.218Z,30.20
2023-09-05T11:13:21.006Z,30.20
2023-09-05T11:15:47.739Z,30.40
2023-09-05T11:18:16.365Z,30.60
2023-09-05T11:20:48.045Z,31.10
2023-09-05T11:23:16.581Z,31.50
2023-09-05T11:25:48.508Z,30.70
2023-09-05T11:28:16.584Z,31.00
2023-09-05T11:30:45.589Z,31.70
2023-09-05T11:33:16.503Z,31.70
2023-09-05T11:35:44.578Z,31.50
2023-09-05T11:38:11.656Z,30.80
2023-09-05T11:40:40.064Z,30.40
2023-09-05T11:43:09.011Z,30.70
2023-09-05T11:45:38.353Z,29.90
2023-09-05T11:48:12.455Z,30.40
2023-09-05T11:50:41.309Z,30.50
2023-09-05T11:53:12.672Z,30.70
2023-09-05T11:55:40.458Z,31.00
2023-09-05T11:58:08.166Z,31.70
2023-09-05T12:00:43.160Z,32.00
2023-09-05T12:03:11.053Z,31.40
2023-09-05T12:05:38.455Z,31.50
2023-09-05T12:08:13.216Z,31.90
2023-09-05T12:10:52.991Z,32.30
2023-09-05T12:13:20.726Z,32.10
2023-09-05T12:15:47.946Z,31.50
2023-09-05T12:18:23.929Z,31.30
2023-09-05T12:20:58.230Z,31.30
2023-09-05T12:23:25.839Z,31.50
2023-09-05T12:25:56.865Z,30.60
2023-09-05T12:28:25.703Z,31.10
2023-09-05T12:31:06.711Z,30.30
2023-09-05T12:33:33.894Z,30.10
2023-09-05T12:36:00.710Z,31.10
2023-09-05T12:38:31.010Z,30.30
2023-09-05T12:40:58.640Z,31.00
2023-09-05T12:43:25.756Z,31.30
2023-09-05T12:45:52.851Z,31.40
2023-09-05T12:48:19.907Z,31.00
2023-09-05T12:50:47.702Z,29.70
2023-09-05T12:53:14.597Z,29.00
2023-09-05T12:55:43.026Z,28.40
2023-09-05T12:58:10.924Z,28.00
2023-09-05T13:00:38.048Z,27.70
2023-09-05T13:03:09.087Z,27.30
2023-09-05T13:05:36.181Z,27.10
2023-09-05T13:08:04.659Z,26.80
2023-09-05T13:10:31.325Z,26.70
2023-09-05T13:13:01.996Z,26.60
2023-09-05T13:15:30.781Z,26.60
2023-09-05T13:17:58.029Z,26.50
2023-09-05T13:20:24.828Z,26.50
2023-09-05T13:22:52.355Z,26.50
2023-09-05T13:25:20.149Z,26.40
2023-09-05T13:27:47.401Z,26.30
2023-09-05T13:30:14.767Z,26.30
2023-09-05T13:32:41.705Z,26.30
2023-09-05T13:35:09.297Z,26.30
2023-09-05T13:37:36.296Z,26.30
2023-09-05T13:40:04.047Z,26.30
2023-09-05T13:42:31.160Z,26.20
2023-09-05T13:44:57.839Z,26.10
2023-09-05T13:47:24.666Z,26.10
2023-09-05T13:49:51.249Z,26.20
2023-09-05T13:52:17.907Z,26.20
2023-09-05T13:54:45.091Z,26.20
2023-09-05T13:57:13.464Z,26.20
2023-09-05T13:59:40.347Z,26.30
2023-09-05T14:02:07.298Z,26.30
2023-09-05T14:04:34.127Z,26.20
2023-09-05T14:07:01.737Z,26.20
2023-09-05T14:09:28.601Z,26.30
2023-09-05T14:11:55.350Z,26.20
2023-09-05T14:14:21.983Z,26.20
2023-09-05T14:16:54.936Z,26.20
2023-09-05T14:19:22.627Z,26.20
2023-09-05T14:21:49.389Z,26.20
2023-09-05T14:24:16.126Z,26.10
2023-09-05T14:26:42.960Z,26.20
2023-09-05T14:29:10.055Z,26.20
2023-09-05T14:31:36.885Z,26.20
2023-09-05T14:34:03.752Z,26.10
2023-09-05T14:36:30.596Z,26.10
2023-09-05T14:38:57.933Z,26.10
2023-09-05T14:41:32.537Z,26.10
2023-09-05T14:44:03.603Z,26.10
2023-09-05T14:46:31.102Z,26.20
2023-09-05T14:48:58.353Z,26.20
2023-09-05T14:51:25.336Z,26.10
2023-09-05T14:53:52.634Z,26.10
2023-09-05T14:56:20.148Z,26.10
2023-09-05T14:58:47.353Z,26.20
2023-09-05T15:01:14.204Z,26.20
2023-09-05T15:03:41.837Z,26.20
2023-09-05T15:06:09.314Z,26.20
2023-09-05T15:08:37.027Z,26.20
2023-09-05T15:11:05.852Z,26.20
2023-09-05T15:13:34.150Z,26.30
2023-09-05T15:16:01.649Z,26.30
2023-09-05T15:18:29.450Z,26.30
2023-09-05T15:20:56.799Z,26.20
2023-09-05T15:23:23.475Z,26.20
2023-09-05T15:25:50.141Z,26.10
2023-09-05T15:28:16.963Z,26.00
2023-09-05T15:30:43.659Z,26.00
2023-09-05T15:33:10.612Z,26.10
2023-09-05T15:35:37.421Z,26.10
2023-09-05T15:38:07.100Z,26.00
2023-09-05T15:40:38.001Z,26.10
2023-09-05T15:43:05.039Z,26.10
2023-09-05T15:45:32.430Z,26.00
2023-09-05T15:48:00.544Z,26.00
2023-09-05T15:50:28.364Z,26.00
2023-09-05T15:52:55.038Z,25.90
2023-09-05T15:55:21.727Z,25.90
2023-09-05T15:57:48.508Z,25.90
2023-09-05T16:00:15.623Z,25.90
2023-09-05T16:02:42.452Z,25.80
2023-09-05T16:05:09.795Z,25.80
2023-09-05T16:07:36.849Z,25.80
2023-09-05T16:10:06.643Z,25.80
2023-09-05T16:12:34.132Z,25.70
2023-09-05T16:15:01.862Z,25.70
2023-09-05T16:17:29.644Z,25.70
2023-09-05T16:19:59.841Z,25.60
2023-09-05T16:22:53.145Z,25.60
2023-09-05T16:25:19.062Z,25.60
2023-09-05T16:27:46.424Z,25.60
2023-09-05T16:30:13.973Z,25.60
2023-09-05T16:32:44.240Z,25.50
2023-09-05T16:35:11.736Z,25.50
2023-09-05T16:37:51.550Z,25.50
2023-09-05T16:40:18.368Z,25.40
2023-09-05T16:42:45.372Z,25.30
2023-09-05T16:45:12.083Z,25.30
2023-09-05T16:47:38.834Z,25.30
2023-09-05T16:50:06.306Z,25.20
2023-09-05T16:52:33.017Z,25.20
2023-09-05T16:54:59.764Z,25.20
2023-09-05T16:57:26.403Z,25.20
2023-09-05T16:59:53.208Z,25.10
2023-09-05T17:02:21.241Z,25.10
2023-09-05T17:04:48.217Z,25.00
2023-09-05T17:07:20.973Z,24.90
2023-09-05T17:09:50.507Z,24.80
2023-09-05T17:12:17.747Z,24.70
2023-09-05T17:14:44.503Z,24.60
2023-09-05T17:17:11.274Z,24.40
2023-09-05T17:19:37.926Z,24.30
2023-09-05T17:22:04.825Z,24.20
2023-09-05T17:24:32.801Z,24.10
2023-09-05T17:26:59.593Z,23.90
2023-09-05T17:29:26.283Z,23.70
2023-09-05T17:31:53.872Z,23.50
2023-09-05T17:34:20.613Z,23.40
2023-09-05T17:36:47.348Z,23.30
2023-09-05T17:39:14.172Z,23.20
2023-09-05T17:41:40.787Z,23.00
2023-09-05T17:44:07.480Z,22.90
2023-09-05T17:46:34.337Z,22.70
2023-09-05T17:49:01.255Z,22.60
2023-09-05T17:51:28.021Z,22.50
2023-09-05T17:53:55.925Z,22.30
2023-09-05T17:56:22.722Z,22.20
2023-09-05T17:58:49.421Z,22.20
2023-09-05T18:01:16.275Z,22.10
2023-09-05T18:03:43.268Z,22.00
2023-09-05T18:06:11.223Z,22.00
2023-09-05T18:08:38.223Z,21.90
2023-09-05T18:11:06.942Z,21.70
2023-09-05T18:13:34.342Z,21.60
2023-09-05T18:16:09.246Z,21.50
2023-09-05T18:18:36.901Z,21.50
2023-09-05T18:21:05.529Z,21.40
2023-09-05T18:23:33.330Z,21.40
2023-09-05T18:26:07.482Z,21.20
2023-09-05T18:28:35.081Z,21.00
2023-09-05T18:31:06.145Z,20.90
2023-09-05T18:33:33.951Z,20.90
2023-09-05T18:36:01.695Z,20.80
2023-09-05T18:38:30.087Z,20.70
2023-09-05T18:40:57.320Z,20.70
2023-09-05T18:43:24.270Z,20.60
2023-09-05T18:45:52.251Z,20.50
2023-09-05T18:48:23.183Z,20.40
2023-09-05T18:50:50.663Z,20.30
2023-09-05T18:53:18.763Z,20.30
2023-09-05T18:55:45.479Z,20.20
2023-09-05T18:58:13.325Z,20.10
2023-09-05T19:00:40.980Z,20.10
2023-09-05T19:03:08.462Z,20.00
2023-09-05T19:05:35.379Z,20.00
2023-09-05T19:08:03.242Z,19.90
2023-09-05T19:10:32.786Z,20.00
2023-09-05T19:12:59.893Z,20.00
2023-09-05T19:15:28.785Z,20.00
2023-09-05T19:17:56.127Z,20.10
2023-09-05T19:20:22.932Z,20.10
2023-09-05T19:22:51.265Z,20.00
2023-09-05T19:25:18.225Z,20.00
2023-09-05T19:27:45.141Z,20.00
2023-09-05T19:30:13.384Z,20.00
2023-09-05T19:32:40.453Z,20.00
2023-09-05T19:35:09.448Z,20.10
2023-09-05T19:37:36.725Z,20.10
2023-09-05T19:40:04.568Z,20.10
2023-09-05T19:42:31.375Z,20.00
2023-09-05T19:44:58.191Z,20.00
2023-09-05T19:47:24.800Z,20.00
2023-09-05T19:49:51.447Z,20.10
2023-09-05T19:52:18.082Z,20.10
2023-09-05T19:54:44.853Z,20.10
2023-09-05T19:57:11.804Z,20.10
2023-09-05T19:59:38.532Z,20.10
2023-09-05T20:02:06.833Z,20.10
2023-09-05T20:04:33.544Z,20.10
2023-09-05T20:07:01.075Z,20.10
2023-09-05T20:09:27.805Z,20.00
2023-09-05T20:11:54.468Z,19.90
2023-09-05T20:14:21.074Z,19.90
2023-09-05T20:16:48.733Z,19.90
2023-09-05T20:19:15.421Z,19.90
2023-09-05T20:21:42.389Z,19.80
2023-09-05T20:24:09.588Z,19.90
2023-09-05T20:26:36.369Z,19.90
2023-09-05T20:29:04.236Z,19.90
2023-09-05T20:31:31.028Z,19.90
2023-09-05T20:33:57.807Z,19.90
2023-09-05T20:36:25.096Z,19.90
2023-09-05T20:38:51.797Z,19.90
2023-09-05T20:41:25.108Z,19.90
2023-09-05T20:43:53.602Z,19.90
2023-09-05T20:46:20.547Z,20.00
2023-09-05T20:48:47.477Z,20.10
2023-09-05T20:51:16.302Z,20.00
2023-09-05T20:53:45.670Z,20.10
2023-09-05T20:56:12.445Z,20.00
2023-09-05T20:58:39.041Z,19.90
2023-09-05T21:01:05.832Z,19.90
2023-09-05T21:03:32.750Z,19.80
2023-09-05T21:06:01.879Z,19.80
2023-09-05T21:08:29.180Z,19.80
2023-09-05T21:13:46.468Z,19.80
2023-09-05T21:16:14.637Z,19.70
2023-09-05T21:18:42.978Z,19.60
2023-09-05T21:21:12.183Z,19.50
2023-09-05T21:23:39.286Z,19.40
2023-09-05T21:26:06.485Z,19.40
2023-09-05T21:28:33.322Z,19.40
2023-09-05T21:31:00.061Z,19.40
2023-09-05T21:33:27.006Z,19.30
2023-09-05T21:35:54.555Z,19.30
2023-09-05T21:38:21.366Z,19.30
2023-09-05T21:40:48.087Z,19.30
2023-09-05T21:43:15.057Z,19.30
2023-09-05T21:45:41.940Z,19.40
2023-09-05T21:48:08.772Z,19.20
2023-09-05T21:50:35.780Z,19.10
2023-09-05T21:53:02.480Z,19.00
2023-09-05T21:55:29.161Z,19.10
2023-09-05T21:57:55.918Z,19.00
2023-09-05T22:00:31.645Z,19.00
2023-09-05T22:03:02.828Z,19.00
2023-09-05T22:05:30.084Z,19.10
2023-09-05T22:08:00.180Z,19.10
2023-09-05T22:10:27.245Z,19.00
2023-09-05T22:12:54.061Z,18.90
2023-09-05T22:15:20.766Z,18.90
2023-09-05T22:17:47.567Z,18.80
2023-09-05T22:20:17.558Z,18.90
2023-09-05T22:22:44.512Z,18.80
2023-09-05T22:25:14.201Z,18.80
2023-09-05T22:27:41.063Z,18.80
2023-09-05T22:30:15.274Z,18.70
2023-09-05T22:32:42.433Z,18.70
2023-09-05T22:35:15.320Z,18.70
2023-09-05T22:37:42.548Z,18.70
2023-09-05T22:40:11.746Z,18.70
2023-09-05T22:42:38.606Z,18.60
2023-09-05T22:45:05.990Z,18.60
2023-09-05T22:47:32.696Z,18.60
2023-09-05T22:50:00.053Z,18.50
2023-09-05T22:52:26.701Z,18.50
2023-09-05T22:54:53.441Z,18.50
2023-09-05T22:57:20.212Z,18.40
2023-09-05T22:59:46.876Z,18.40
2023-09-05T23:02:13.692Z,18.40
2023-09-05T23:04:40.345Z,18.40
2023-09-05T23:07:07.096Z,18.40
2023-09-05T23:09:33.864Z,18.40
2023-09-05T23:12:00.526Z,18.50
2023-09-05T23:14:28.060Z,18.50
2023-09-05T23:16:54.963Z,18.40
2023-09-05T23:19:21.912Z,18.30
2023-09-05T23:21:48.711Z,18.30
2023-09-05T23:24:15.401Z,18.30
2023-09-05T23:26:42.070Z,18.20
2023-09-05T23:29:10.411Z,18.20
2023-09-05T23:31:37.070Z,18.20
2023-09-05T23:34:03.843Z,18.20
2023-09-05T23:36:31.417Z,18.10
2023-09-05T23:38:58.535Z,18.10
2023-09-05T23:41:29.487Z,18.10
2023-09-05T23:43:57.241Z,18.10
2023-09-05T23:46:24.192Z,18.10
2023-09-05T23:48:54.059Z,18.10
2023-09-05T23:51:21.481Z,18.00
2023-09-05T23:53:48.312Z,18.00
2023-09-05T23:56:15.134Z,18.00
2023-09-05T23:58:41.870Z,18.00
